createdAt,value
2023-02-12T00:00:16.629Z,20.60
2023-02-12T00:02:44.236Z,19.85
2023-02-12T00:05:13.164Z,20.30
2023-02-12T00:07:40.675Z,19.25
2023-02-12T00:10:09.561Z,20.50
2023-02-12T00:12:37.099Z,19.80
2023-02-12T00:15:05.119Z,21.17
2023-02-12T00:17:32.701Z,20.33
2023-02-12T00:20:00.264Z,18.50
2023-02-12T00:22:29.558Z,19.48
2023-02-12T00:24:57.236Z,19.98
2023-02-12T00:27:25.128Z,18.42
2023-02-12T00:29:52.694Z,18.65
2023-02-12T00:32:20.361Z,19.25
2023-02-12T00:34:48.050Z,19.65
2023-02-12T00:37:15.794Z,19.35
2023-02-12T00:39:44.836Z,18.58
2023-02-12T00:42:12.782Z,19.83
2023-02-12T00:44:40.378Z,20.35
2023-02-12T00:47:07.912Z,19.92
2023-02-12T00:49:35.420Z,20.38
2023-02-12T00:52:04.495Z,19.30
2023-02-12T00:54:33.284Z,19.63
2023-02-12T00:57:02.468Z,19.75
2023-02-12T00:59:30.533Z,21.40
2023-02-12T01:01:58.404Z,21.27
2023-02-12T01:04:25.961Z,20.95
2023-02-12T01:06:53.515Z,21.08
2023-02-12T01:09:20.988Z,22.77
2023-02-12T01:11:48.581Z,21.67
2023-02-12T01:14:17.478Z,22.00
2023-02-12T01:16:45.971Z,22.23
2023-02-12T01:19:13.883Z,22.58
2023-02-12T01:21:41.703Z,23.65
2023-02-12T01:24:09.646Z,21.33
2023-02-12T01:26:37.182Z,20.63
2023-02-12T01:29:07.173Z,22.00
2023-02-12T01:31:38.874Z,21.08
2023-02-12T01:34:08.387Z,23.20
2023-02-12T01:36:36.411Z,21.73
2023-02-12T01:39:05.317Z,21.77
2023-02-12T01:41:35.264Z,24.08
2023-02-12T01:44:17.903Z,21.23
2023-02-12T01:46:48.619Z,22.65
2023-02-12T01:49:21.264Z,22.27
2023-02-12T01:51:51.519Z,23.40
2023-02-12T01:54:22.409Z,22.58
2023-02-12T01:56:50.427Z,23.58
2023-02-12T01:59:19.768Z,24.77
2023-02-12T02:01:48.822Z,24.88
2023-02-12T02:04:20.990Z,24.70
2023-02-12T02:06:51.784Z,24.67
2023-02-12T02:09:20.748Z,25.92
2023-02-12T02:12:05.851Z,25.63
2023-02-12T02:14:33.666Z,25.98
2023-02-12T02:17:18.418Z,27.25
2023-02-12T02:20:21.047Z,26.90
2023-02-12T02:22:56.795Z,29.65
2023-02-12T02:25:41.576Z,29.38
2023-02-12T02:28:27.851Z,28.40
2023-02-12T02:31:00.398Z,29.80
2023-02-12T02:33:37.277Z,30.67
2023-02-12T02:36:15.459Z,30.33
2023-02-12T02:38:48.058Z,29.55
2023-02-12T02:41:22.619Z,30.13
2023-02-12T02:43:52.008Z,31.50
2023-02-12T02:46:28.684Z,29.45
2023-02-12T02:49:01.116Z,32.03
2023-02-12T02:51:31.727Z,29.35
2023-02-12T02:54:06.407Z,31.65
2023-02-12T02:56:37.840Z,31.13
2023-02-12T02:59:08.670Z,30.75
2023-02-12T03:01:44.040Z,30.30
2023-02-12T03:04:15.646Z,30.90
2023-02-12T03:06:49.006Z,32.42
2023-02-12T03:09:22.385Z,30.20
2023-02-12T03:11:50.870Z,29.60
2023-02-12T03:14:25.056Z,30.38
2023-02-12T03:16:59.656Z,30.75
2023-02-12T03:19:30.930Z,30.77
2023-02-12T03:22:02.295Z,29.73
2023-02-12T03:24:36.119Z,31.60
2023-02-12T03:27:08.123Z,31.42
2023-02-12T03:29:35.740Z,32.53
2023-02-12T03:32:17.025Z,30.45
2023-02-12T03:34:51.505Z,31.77
2023-02-12T03:37:22.742Z,30.30
2023-02-12T03:39:56.314Z,31.50
2023-02-12T03:42:33.572Z,31.92
2023-02-12T03:45:05.221Z,29.58
2023-02-12T03:47:44.186Z,30.23
2023-02-12T03:50:17.552Z,29.52
2023-02-12T03:52:46.163Z,31.38
2023-02-12T03:55:14.757Z,33.03
2023-02-12T03:57:45.462Z,35.03
2023-02-12T04:00:16.486Z,33.03
2023-02-12T04:02:46.262Z,33.38
2023-02-12T04:05:20.585Z,33.35
2023-02-12T04:07:48.609Z,31.80
2023-02-12T04:10:17.227Z,32.97
2023-02-12T04:12:52.947Z,31.33
2023-02-12T04:15:40.453Z,36.15
2023-02-12T04:18:16.085Z,32.97
2023-02-12T04:20:54.238Z,33.50
2023-02-12T04:23:40.587Z,35.85
2023-02-12T04:26:17.257Z,33.53
2023-02-12T04:28:52.962Z,32.22
2023-02-12T04:31:29.491Z,31.98
2023-02-12T04:34:06.084Z,30.95
2023-02-12T04:36:37.747Z,33.08
2023-02-12T04:39:11.323Z,35.80
2023-02-12T04:41:40.397Z,33.30
2023-02-12T04:44:18.486Z,33.88
2023-02-12T04:46:46.013Z,34.17
2023-02-12T04:49:17.893Z,33.30
2023-02-12T04:51:46.363Z,36.50
2023-02-12T04:54:14.536Z,34.75
2023-02-12T04:56:42.351Z,35.85
2023-02-12T04:59:10.303Z,33.80
2023-02-12T05:01:39.614Z,34.20
2023-02-12T05:04:09.177Z,36.88
2023-02-12T05:06:39.476Z,34.08
2023-02-12T05:09:08.251Z,36.47
2023-02-12T05:11:35.884Z,35.47
2023-02-12T05:14:03.390Z,34.95
2023-02-12T05:16:30.901Z,37.38
2023-02-12T05:18:58.636Z,35.83
2023-02-12T05:21:26.232Z,35.05
2023-02-12T05:23:55.138Z,38.72
2023-02-12T05:26:23.454Z,35.25
2023-02-12T05:28:50.970Z,37.40
2023-02-12T05:31:21.754Z,39.08
2023-02-12T05:33:50.263Z,39.67
2023-02-12T05:36:20.432Z,40.05
2023-02-12T05:38:48.340Z,38.63
2023-02-12T05:41:19.259Z,37.60
2023-02-12T05:43:49.566Z,38.15
2023-02-12T05:46:18.699Z,38.05
2023-02-12T05:48:46.797Z,40.67
2023-02-12T05:51:16.940Z,33.60
2023-02-12T05:53:44.452Z,36.72
2023-02-12T05:56:16.453Z,39.75
2023-02-12T05:58:46.954Z,36.70
2023-02-12T06:01:17.775Z,39.28
2023-02-12T06:03:45.640Z,36.80
2023-02-12T06:06:13.698Z,37.53
2023-02-12T06:08:41.464Z,36.15
2023-02-12T06:11:13.081Z,32.15
2023-02-12T06:13:40.787Z,34.78
2023-02-12T06:16:18.686Z,37.83
2023-02-12T06:18:46.448Z,36.47
2023-02-12T06:21:14.023Z,35.42
2023-02-12T06:23:41.543Z,37.38
2023-02-12T06:26:09.131Z,38.15
2023-02-12T06:28:37.031Z,39.33
2023-02-12T06:31:04.912Z,35.30
2023-02-12T06:33:35.581Z,38.42
2023-02-12T06:36:04.888Z,38.13
2023-02-12T06:38:32.414Z,36.92
2023-02-12T06:41:02.543Z,36.92
2023-02-12T06:43:30.419Z,37.72
2023-02-12T06:46:01.833Z,36.30
2023-02-12T06:48:29.609Z,35.97
2023-02-12T06:51:05.529Z,37.97
2023-02-12T06:53:35.372Z,33.20
2023-02-12T06:56:03.159Z,36.67
2023-02-12T06:58:31.035Z,35.50
2023-02-12T07:00:58.918Z,34.67
2023-02-12T07:03:26.438Z,33.13
2023-02-12T07:05:54.318Z,32.50
2023-02-12T07:08:23.499Z,31.42
2023-02-12T07:10:51.239Z,32.45
2023-02-12T07:13:18.805Z,30.50
2023-02-12T07:15:46.326Z,30.45
2023-02-12T07:18:13.858Z,32.33
2023-02-12T07:20:41.398Z,27.50
2023-02-12T07:23:12.023Z,29.77
2023-02-12T07:25:40.942Z,27.33
2023-02-12T07:28:08.799Z,29.85
2023-02-12T07:30:36.476Z,31.75
2023-02-12T07:33:04.065Z,28.20
2023-02-12T07:35:31.589Z,26.90
2023-02-12T07:37:59.482Z,29.05
2023-02-12T07:40:26.965Z,29.92
2023-02-12T07:42:57.496Z,32.53
2023-02-12T07:45:36.188Z,30.83
2023-02-12T07:48:03.851Z,30.88
2023-02-12T07:50:31.345Z,31.45
2023-02-12T07:52:58.858Z,30.13
2023-02-12T07:55:26.512Z,31.85
2023-02-12T07:57:54.193Z,34.67
2023-02-12T08:00:23.682Z,34.17
2023-02-12T08:02:54.353Z,33.17
2023-02-12T08:05:23.837Z,29.80
2023-02-12T08:08:06.514Z,30.10
2023-02-12T08:10:36.045Z,32.83
2023-02-12T08:13:12.008Z,36.47
2023-02-12T08:15:41.620Z,36.53
2023-02-12T08:18:11.613Z,39.15
2023-02-12T08:20:40.377Z,38.78
2023-02-12T08:23:10.651Z,37.90
2023-02-12T08:25:39.049Z,39.50
2023-02-12T08:28:07.102Z,38.00
2023-02-12T08:30:35.005Z,39.25
2023-02-12T08:33:04.196Z,37.47
2023-02-12T08:35:31.887Z,38.67
2023-02-12T08:37:59.428Z,38.83
2023-02-12T08:40:27.083Z,40.55
2023-02-12T08:42:54.710Z,40.35
2023-02-12T08:45:22.324Z,39.22
2023-02-12T08:47:49.884Z,35.55
2023-02-12T08:50:19.119Z,39.58
2023-02-12T08:52:46.699Z,38.90
2023-02-12T08:55:14.261Z,36.05
2023-02-12T08:57:43.399Z,36.25
2023-02-12T09:00:12.046Z,35.08
2023-02-12T09:02:40.925Z,34.17
2023-02-12T09:05:09.001Z,34.15
2023-02-12T09:07:37.943Z,31.80
2023-02-12T09:10:06.500Z,32.88
2023-02-12T09:12:34.116Z,31.90
2023-02-12T09:15:01.770Z,34.50
2023-02-12T09:17:30.496Z,32.65
2023-02-12T09:19:58.467Z,32.55
2023-02-12T09:22:26.119Z,32.78
2023-02-12T09:24:55.018Z,30.67
2023-02-12T09:27:22.603Z,31.50
2023-02-12T09:29:50.251Z,28.75
2023-02-12T09:32:17.871Z,32.38
2023-02-12T09:34:45.540Z,31.20
2023-02-12T09:37:13.121Z,31.75
2023-02-12T09:39:40.813Z,33.50
2023-02-12T09:42:22.391Z,30.48
2023-02-12T09:45:02.595Z,28.00
2023-02-12T09:47:39.645Z,28.27
2023-02-12T09:50:23.964Z,28.38
2023-02-12T09:52:52.164Z,23.95
2023-02-12T09:55:20.983Z,22.23
2023-02-12T09:57:53.709Z,17.63
2023-02-12T10:00:28.397Z,13.30
2023-02-12T10:02:57.748Z,16.33
2023-02-12T10:05:40.824Z,11.32
2023-02-12T10:20:09.378Z,2.57
2023-02-12T10:22:57.075Z,2.47
2023-02-12T10:25:48.845Z,2.55
2023-02-12T10:28:21.291Z,2.22
2023-02-12T10:30:59.076Z,2.28
2023-02-12T10:33:37.586Z,1.85
2023-02-12T10:36:22.544Z,1.85
2023-02-12T10:46:51.800Z,1.20
2023-02-12T10:49:22.435Z,1.60
2023-02-12T10:52:02.817Z,1.40
2023-02-12T10:57:30.921Z,1.80
2023-02-12T11:00:16.577Z,1.67
2023-02-12T11:03:02.310Z,1.55
2023-02-12T11:05:33.800Z,1.88
2023-02-12T11:08:02.585Z,1.25
2023-02-12T11:10:32.835Z,1.52
2023-02-12T11:13:03.236Z,2.58
2023-02-12T11:15:38.407Z,2.60
2023-02-12T11:18:11.209Z,2.20
2023-02-12T11:23:27.030Z,1.92
2023-02-12T11:26:07.884Z,1.50
2023-02-12T11:28:39.654Z,1.65
2023-02-12T11:31:23.396Z,1.40
2023-02-12T11:34:09.350Z,1.42
2023-02-12T11:36:44.085Z,1.58
2023-02-12T11:39:22.556Z,2.30
2023-02-12T12:17:14.095Z,3.42
2023-02-12T12:38:30.904Z,3.80
2023-02-12T12:41:09.433Z,3.47
2023-02-12T12:43:50.476Z,3.17
2023-02-12T14:27:02.212Z,3.40
2023-02-12T14:44:47.473Z,4.10
2023-02-12T14:47:31.075Z,4.60
2023-02-12T14:50:02.692Z,6.50
2023-02-12T14:52:37.541Z,6.38
2023-02-12T14:55:19.306Z,5.70
2023-02-12T14:57:47.552Z,5.72
2023-02-12T15:03:22.239Z,5.90
2023-02-12T15:05:57.300Z,5.72
2023-02-12T15:08:32.168Z,5.38
2023-02-12T15:11:14.920Z,5.13
2023-02-12T15:13:50.578Z,4.63
2023-02-12T15:16:25.852Z,5.13
2023-02-12T15:18:59.162Z,4.85
2023-02-12T15:21:29.279Z,5.15
2023-02-12T15:24:04.774Z,5.70
2023-02-12T15:26:38.300Z,4.80
2023-02-12T15:29:08.376Z,5.50
2023-02-12T15:31:36.415Z,5.40
2023-02-12T15:34:05.872Z,6.03
2023-02-12T15:36:35.393Z,7.18
2023-02-12T15:39:05.786Z,5.90
2023-02-12T15:41:40.256Z,5.75
2023-02-12T15:44:22.117Z,6.68
2023-02-12T15:46:57.628Z,6.28
2023-02-12T15:49:33.713Z,8.45
2023-02-12T15:52:04.153Z,6.88
2023-02-12T15:54:32.036Z,6.38
2023-02-12T15:57:02.368Z,6.82
2023-02-12T15:59:30.036Z,6.65
2023-02-12T16:02:00.588Z,6.35
2023-02-12T16:04:31.405Z,7.80
2023-02-12T16:06:59.392Z,7.97
2023-02-12T16:09:31.355Z,7.63
2023-02-12T16:12:02.984Z,7.65
2023-02-12T16:14:40.700Z,7.70
2023-02-12T16:17:21.234Z,9.13
2023-02-12T16:19:55.636Z,8.20
2023-02-12T16:22:28.400Z,7.97
2023-02-12T16:27:30.879Z,8.20
2023-02-12T16:30:00.864Z,8.05
2023-02-12T16:32:31.547Z,8.15
2023-02-12T16:35:01.346Z,7.90
2023-02-12T16:37:47.889Z,9.25
2023-02-12T16:40:31.762Z,8.50
2023-02-12T16:43:25.130Z,7.43
2023-02-12T16:46:02.236Z,8.40
2023-02-12T16:48:31.166Z,8.20
2023-02-12T16:50:59.646Z,7.80
2023-02-12T16:53:34.849Z,6.93
2023-02-12T16:56:04.750Z,8.60
2023-02-12T16:58:33.600Z,8.45
2023-02-12T17:01:04.996Z,9.35
2023-02-12T17:03:32.664Z,10.15
2023-02-12T17:06:00.345Z,9.43
2023-02-12T17:08:27.902Z,8.88
2023-02-12T17:10:55.402Z,8.95
2023-02-12T17:13:22.900Z,8.68
2023-02-12T17:15:56.169Z,8.95
2023-02-12T17:18:24.728Z,9.55
2023-02-12T17:20:55.619Z,10.02
2023-02-12T17:23:24.063Z,11.15
2023-02-12T17:25:51.883Z,10.00
2023-02-12T17:28:19.458Z,9.90
2023-02-12T17:30:47.132Z,10.23
2023-02-12T17:33:17.205Z,12.70
2023-02-12T17:35:44.789Z,13.00
2023-02-12T17:38:13.000Z,11.05
2023-02-12T17:40:40.593Z,11.65
2023-02-12T17:43:08.644Z,9.80
2023-02-12T17:45:36.233Z,10.57
2023-02-12T17:48:03.777Z,10.38
2023-02-12T17:50:32.668Z,9.73
2023-02-12T17:53:00.274Z,9.93
2023-02-12T17:55:27.833Z,10.13
2023-02-12T17:57:56.062Z,10.18
2023-02-12T18:00:24.220Z,11.05
2023-02-12T18:02:53.121Z,11.23
2023-02-12T18:05:20.644Z,13.25
2023-02-12T18:07:49.498Z,11.15
2023-02-12T18:10:17.101Z,12.43
2023-02-12T18:12:44.614Z,12.13
2023-02-12T18:15:13.515Z,12.25
2023-02-12T18:17:42.493Z,11.77
2023-02-12T18:20:11.345Z,13.20
2023-02-12T18:22:38.824Z,11.13
2023-02-12T18:25:09.014Z,11.50
2023-02-12T18:27:36.697Z,11.30
2023-02-12T18:30:04.493Z,10.98
2023-02-12T18:32:31.998Z,10.65
2023-02-12T18:34:59.485Z,11.55
2023-02-12T18:37:26.984Z,11.77
2023-02-12T18:39:54.573Z,12.02
2023-02-12T18:42:23.553Z,13.32
2023-02-12T18:44:52.444Z,11.55
2023-02-12T18:47:19.983Z,12.60
2023-02-12T18:49:47.491Z,12.52
2023-02-12T18:52:14.957Z,13.60
2023-02-12T18:54:44.459Z,12.18
2023-02-12T18:57:12.081Z,11.02
2023-02-12T18:59:40.948Z,12.35
2023-02-12T19:02:08.845Z,13.02
2023-02-12T19:04:36.509Z,13.68
2023-02-12T19:07:04.054Z,13.60
2023-02-12T19:09:31.595Z,10.88
2023-02-12T19:12:00.310Z,13.85
2023-02-12T19:14:28.900Z,10.65
2023-02-12T19:16:57.783Z,11.73
2023-02-12T19:19:25.611Z,12.57
2023-02-12T19:21:53.153Z,12.38
2023-02-12T19:24:20.854Z,11.57
2023-02-12T19:26:52.158Z,12.10
2023-02-12T19:29:19.783Z,11.80
2023-02-12T19:31:47.938Z,12.27
2023-02-12T19:34:19.919Z,12.75
2023-02-12T19:36:48.644Z,12.73
2023-02-12T19:39:17.684Z,12.45
2023-02-12T19:41:47.023Z,12.85
2023-02-12T19:44:18.052Z,16.00
2023-02-12T19:46:47.156Z,13.48
2023-02-12T19:49:17.914Z,13.95
2023-02-12T19:51:46.033Z,14.13
2023-02-12T19:54:15.461Z,13.57
2023-02-12T19:56:44.636Z,13.35
2023-02-12T19:59:14.355Z,13.93
2023-02-12T20:01:42.130Z,19.13
2023-02-12T20:04:12.185Z,17.80
2023-02-12T20:06:41.944Z,18.35
2023-02-12T20:09:09.681Z,15.57
2023-02-12T20:11:38.535Z,14.27
2023-02-12T20:14:07.533Z,16.38
2023-02-12T20:16:38.238Z,14.13
2023-02-12T20:19:09.378Z,13.25
2023-02-12T20:21:37.238Z,13.80
2023-02-12T20:24:06.944Z,12.38
2023-02-12T20:26:35.091Z,13.23
2023-02-12T20:29:05.091Z,12.48
2023-02-12T20:31:34.997Z,12.27
2023-02-12T20:34:04.985Z,13.18
2023-02-12T20:36:33.626Z,12.35
2023-02-12T20:39:01.463Z,12.95
2023-02-12T20:41:30.304Z,12.40
2023-02-12T20:44:01.265Z,12.55
2023-02-12T20:46:29.322Z,12.40
2023-02-12T20:48:58.561Z,12.32
2023-02-12T20:51:29.167Z,11.43
2023-02-12T20:53:58.847Z,11.63
2023-02-12T20:56:30.756Z,12.15
2023-02-12T20:59:03.227Z,10.93
2023-02-12T21:01:35.295Z,12.38
2023-02-12T21:04:06.344Z,12.30
2023-02-12T21:06:36.882Z,11.70
2023-02-12T21:09:06.389Z,12.05
2023-02-12T21:11:35.750Z,13.02
2023-02-12T21:14:21.192Z,12.57
2023-02-12T21:16:51.192Z,13.40
2023-02-12T21:19:21.183Z,13.52
2023-02-12T21:21:50.958Z,14.15
2023-02-12T21:24:24.390Z,13.40
2023-02-12T21:26:56.777Z,13.30
2023-02-12T21:29:30.290Z,13.98
2023-02-12T21:32:00.860Z,11.90
2023-02-12T21:34:30.843Z,11.55
2023-02-12T21:36:59.068Z,12.07
2023-02-12T21:39:29.232Z,13.70
2023-02-12T21:42:00.524Z,14.15
2023-02-12T21:44:31.337Z,12.75
2023-02-12T21:46:59.901Z,12.38
2023-02-12T21:49:28.865Z,12.55
2023-02-12T21:51:58.763Z,12.70
2023-02-12T21:54:27.708Z,12.52
2023-02-12T21:56:57.341Z,13.05
2023-02-12T21:59:26.766Z,13.27
2023-02-12T22:01:58.945Z,11.85
2023-02-12T22:04:27.504Z,13.32
2023-02-12T22:06:56.659Z,13.75
2023-02-12T22:09:25.404Z,13.43
2023-02-12T22:11:53.735Z,13.80
2023-02-12T22:14:23.602Z,13.57
2023-02-12T22:16:52.012Z,12.52
2023-02-12T22:19:22.326Z,13.75
2023-02-12T22:21:52.793Z,13.80
2023-02-12T22:24:22.201Z,15.35
2023-02-12T22:26:51.009Z,14.43
2023-02-12T22:29:19.520Z,15.38
2023-02-12T22:31:48.804Z,13.48
2023-02-12T22:34:20.138Z,13.82
2023-02-12T22:36:50.359Z,13.57
2023-02-12T22:39:19.086Z,14.88
2023-02-12T22:41:47.736Z,15.38
2023-02-12T22:44:18.865Z,14.80
2023-02-12T22:46:48.359Z,13.82
2023-02-12T22:49:17.338Z,14.93
2023-02-12T22:51:45.895Z,15.60
2023-02-12T22:54:18.143Z,14.25
2023-02-12T22:56:47.095Z,14.23
2023-02-12T22:59:15.277Z,14.93
2023-02-12T23:01:43.509Z,15.77
2023-02-12T23:04:15.385Z,14.73
2023-02-12T23:06:44.032Z,16.00
2023-02-12T23:09:15.700Z,17.10
2023-02-12T23:11:43.935Z,16.67
2023-02-12T23:14:12.427Z,17.30
2023-02-12T23:16:40.752Z,17.13
2023-02-12T23:19:08.815Z,17.92
2023-02-12T23:21:37.278Z,20.48
2023-02-12T23:24:05.612Z,20.92
2023-02-12T23:26:36.785Z,21.10
2023-02-12T23:29:05.052Z,20.90
2023-02-12T23:31:33.459Z,20.58
2023-02-12T23:34:01.297Z,20.33
2023-02-12T23:36:29.737Z,21.75
2023-02-12T23:38:59.342Z,22.27
2023-02-12T23:41:27.674Z,22.05
2023-02-12T23:43:57.500Z,22.08
2023-02-12T23:46:25.722Z,20.58
2023-02-12T23:48:54.163Z,22.05
2023-02-12T23:51:22.492Z,21.17
2023-02-12T23:53:50.465Z,21.83
2023-02-12T23:56:18.540Z,20.40
2023-02-12T23:58:47.820Z,20.60
